| time (UTC) | temp C | wind direction | speed KPH | gust KPH | rain 1hr cm | rain 24hr cm | rain mn cm | humidity % | barometer mb |
| 20260504231636 | 23 | 24 | 3.2 | 12.9 | 0.00 | 0.00 | 0.00 | 64 | 1016.9 |
| 20260504231132 | 23 | 85 | 1.6 | 12.9 | 0.00 | 0.00 | 0.00 | 63 | 1016.7 |
| 20260504230628 | 23 | 119 | 3.2 | 11.3 | 0.00 | 0.00 | 0.00 | 63 | 1016.5 |
| 20260504230127 | 23 | 101 | 3.2 | 17.7 | 0.00 | 0.00 | 0.00 | 62 | 1016.6 |
| 20260504225625 | 23 | 116 | 1.6 | 9.7 | 0.00 | 0.00 | 0.00 | 62 | 1016.6 |
| 20260504225121 | 23 | 49 | 3.2 | 11.3 | 0.00 | 0.00 | 0.00 | 62 | 1016.6 |
| 20260504224618 | 23 | 117 | 11.3 | 17.7 | 0.00 | 0.00 | 0.00 | 61 | 1016.8 |
| 20260504224115 | 23 | 112 | 9.7 | 14.5 | 0.00 | 0.00 | 0.00 | 61 | 1016.6 |
| 20260504223612 | 24 | 146 | 4.8 | 8.0 | 0.00 | 0.00 | 0.00 | 60 | 1016.6 |
| 20260504223108 | 24 | 136 | 3.2 | 11.3 | 0.00 | 0.00 | 0.00 | 59 | 1016.6 |
| 20260504222605 | 24 | 71 | 4.8 | 14.5 | 0.00 | 0.00 | 0.00 | 58 | 1016.5 |
| 20260504222102 | 24 | 92 | 1.6 | 8.0 | 0.00 | 0.00 | 0.00 | 57 | 1016.4 |
| 20260504221559 | 24 | 149 | 3.2 | 11.3 | 0.00 | 0.00 | 0.00 | 57 | 1016.7 |
| 20260504221055 | 24 | 348 | 4.8 | 12.9 | 0.00 | 0.00 | 0.00 | 58 | 1016.8 |
| 20260504220552 | 24 | 16 | 3.2 | 14.5 | 0.00 | 0.00 | 0.00 | 57 | 1016.8 |
| 20260504220049 | 24 | 121 | 8.0 | 16.1 | 0.00 | 0.00 | 0.00 | 57 | 1016.8 |
| 20260504215546 | 24 | 16 | 6.4 | 17.7 | 0.00 | 0.00 | 0.00 | 57 | 1016.9 |
| 20260504215043 | 25 | 134 | 4.8 | 11.3 | 0.00 | 0.00 | 0.00 | 55 | 1016.8 |
| 20260504214539 | 25 | 115 | 4.8 | 11.3 | 0.00 | 0.00 | 0.00 | 55 | 1016.5 |
| 20260504214036 | 25 | 31 | 3.2 | 4.8 | 0.00 | 0.00 | 0.00 | 54 | 1016.5 |
| 20260504213532 | 24 | 140 | 6.4 | 12.9 | 0.00 | 0.00 | 0.00 | 54 | 1016.7 |
| 20260504213030 | 24 | 153 | 9.7 | 20.9 | 0.00 | 0.00 | 0.00 | 55 | 1016.6 |
| 20260504212525 | 25 | 150 | 11.3 | 17.7 | 0.00 | 0.00 | 0.00 | 53 | 1016.9 |
| 20260504212023 | 25 | 139 | 11.3 | 14.5 | 0.00 | 0.00 | 0.00 | 53 | 1016.6 |
| 20260504211520 | 25 | 136 | 11.3 | 16.1 | 0.00 | 0.00 | 0.00 | 52 | 1016.9 |
| 20260504211017 | 25 | 137 | 4.8 | 14.5 | 0.00 | 0.00 | 0.00 | 52 | 1016.9 |
| 20260504210514 | 25 | 164 | 14.5 | 22.5 | 0.00 | 0.00 | 0.00 | 52 | 1017.1 |
| 20260504210010 | 25 | 158 | 12.9 | 17.7 | 0.00 | 0.00 | 0.00 | 53 | 1016.8 |
| 20260504205508 | 25 | 44 | 6.4 | 12.9 | 0.00 | 0.00 | 0.00 | 51 | 1017.0 |
| 20260504205006 | 25 | 3 | 3.2 | 8.0 | 0.00 | 0.00 | 0.00 | 51 | 1017.0 |
| 20260504204504 | 25 | 135 | 9.7 | 14.5 | 0.00 | 0.00 | 0.00 | 52 | 1016.9 |
| 20260504204003 | 26 | 148 | 11.3 | 17.7 | 0.00 | 0.00 | 0.00 | 51 | 1016.8 |
| 20260504203500 | 25 | 86 | 3.2 | 8.0 | 0.00 | 0.00 | 0.00 | 51 | 1017.1 |
| 20260504202956 | 25 | 136 | 9.7 | 12.9 | 0.00 | 0.00 | 0.00 | 52 | 1017.1 |
| 20260504202453 | 25 | 170 | 6.4 | 12.9 | 0.00 | 0.00 | 0.00 | 51 | 1017.1 |
| 20260504201950 | 25 | 123 | 11.3 | 20.9 | 0.00 | 0.00 | 0.00 | 52 | 1017.2 |
| 20260504201447 | 25 | 119 | 3.2 | 9.7 | 0.00 | 0.00 | 0.00 | 49 | 1016.9 |
| 20260504200944 | 25 | 148 | 4.8 | 12.9 | 0.00 | 0.00 | 0.00 | 49 | 1017.0 |
| 20260504200441 | 25 | 142 | 6.4 | 9.7 | 0.00 | 0.00 | 0.00 | 50 | 1017.1 |
| 20260504195937 | 25 | 133 | 8.0 | 11.3 | 0.00 | 0.00 | 0.00 | 50 | 1017.2 |
| 20260504195433 | 24 | 193 | 14.5 | 17.7 | 0.00 | 0.00 | 0.00 | 51 | 1017.0 |
| 20260504194930 | 25 | 131 | 6.4 | 9.7 | 0.00 | 0.00 | 0.00 | 51 | 1017.2 |
| 20260504194426 | 25 | 160 | 9.7 | 16.1 | 0.00 | 0.00 | 0.00 | 49 | 1017.3 |
| 20260504193922 | 25 | 114 | 8.0 | 12.9 | 0.00 | 0.00 | 0.00 | 49 | 1017.3 |
| 20260504193420 | 25 | 115 | 6.4 | 14.5 | 0.00 | 0.00 | 0.00 | 49 | 1017.4 |
| 20260504192918 | 26 | 101 | 3.2 | 12.9 | 0.00 | 0.00 | 0.00 | 47 | 1017.6 |
| 20260504192415 | 25 | 114 | 8.0 | 12.9 | 0.00 | 0.00 | 0.00 | 48 | 1017.3 |
| 20260504191914 | 25 | 120 | 8.0 | 11.3 | 0.00 | 0.00 | 0.00 | 45 | 1017.7 |
| 20260504191412 | 25 | 74 | 8.0 | 11.3 | 0.00 | 0.00 | 0.00 | 43 | 1017.6 |
| 20260504190906 | 25 | 136 | 11.3 | 14.5 | 0.00 | 0.00 | 0.00 | 44 | 1017.8 |
| 20260504190403 | 25 | 118 | 8.0 | 20.9 | 0.00 | 0.00 | 0.00 | 43 | 1017.8 |
| 20260504185859 | 26 | 63 | 4.8 | 9.7 | 0.00 | 0.00 | 0.00 | 43 | 1017.9 |
| 20260504185357 | 25 | 123 | 14.5 | 17.7 | 0.00 | 0.00 | 0.00 | 44 | 1017.9 |
| 20260504184853 | 25 | 134 | 14.5 | 17.7 | 0.00 | 0.00 | 0.00 | 43 | 1017.9 |
| 20260504184348 | 25 | 79 | 8.0 | 12.9 | 0.00 | 0.00 | 0.00 | 46 | 1017.9 |
| 20260504183844 | 25 | 113 | 4.8 | 8.0 | 0.00 | 0.00 | 0.00 | 43 | 1018.2 |
| 20260504183342 | 25 | 139 | 9.7 | 14.5 | 0.00 | 0.00 | 0.00 | 45 | 1018.2 |
| 20260504182839 | 25 | 118 | 1.6 | 9.7 | 0.00 | 0.00 | 0.00 | 44 | 1018.2 |
| 20260504182337 | 25 | 196 | 6.4 | 9.7 | 0.00 | 0.00 | 0.00 | 44 | 1018.1 |
| 20260504181833 | 25 | 143 | 3.2 | 11.3 | 0.00 | 0.00 | 0.00 | 45 | 1018.4 |
| 20260504181331 | 24 | 136 | 11.3 | 16.1 | 0.00 | 0.00 | 0.00 | 45 | 1018.3 |
| 20260504180830 | 25 | 83 | 3.2 | 4.8 | 0.00 | 0.00 | 0.00 | 42 | 1018.2 |
| 20260504180328 | 25 | 126 | 11.3 | 14.5 | 0.00 | 0.00 | 0.00 | 40 | 1018.5 |
| 20260504175826 | 25 | 350 | 8.0 | 11.3 | 0.00 | 0.00 | 0.00 | 43 | 1018.3 |
| 20260504175322 | 25 | 29 | 6.4 | 16.1 | 0.00 | 0.00 | 0.00 | 43 | 1018.4 |
| 20260504174821 | 26 | 50 | 8.0 | 12.9 | 0.00 | 0.00 | 0.00 | 42 | 1018.4 |
| 20260504174318 | 26 | 4 | 0.0 | 9.7 | 0.00 | 0.00 | 0.00 | 44 | 1018.6 |
| 20260504173814 | 25 | 24 | 3.2 | 4.8 | 0.00 | 0.00 | 0.00 | 42 | 1018.6 |
| 20260504173311 | 25 | 73 | 4.8 | 4.8 | 0.00 | 0.00 | 0.00 | 42 | 1018.7 |
| 20260504172808 | 25 | 185 | 1.6 | 8.0 | 0.00 | 0.00 | 0.00 | 41 | 1018.7 |
| 20260504172305 | 25 | 128 | 6.4 | 9.7 | 0.00 | 0.00 | 0.00 | 41 | 1018.8 |
| 20260504171800 | 25 | 46 | 3.2 | 11.3 | 0.00 | 0.00 | 0.00 | 41 | 1018.8 |
| 20260504171258 | 25 | 148 | 4.8 | 9.7 | 0.00 | 0.00 | 0.00 | 40 | 1018.8 |
| 20260504170755 | 25 | 23 | 1.6 | 11.3 | 0.00 | 0.00 | 0.00 | 41 | 1019.0 |
| 20260504170252 | 24 | 356 | 1.6 | 4.8 | 0.00 | 0.00 | 0.00 | 41 | 1018.9 |
| 20260504160210 | 24 | 346 | 1.6 | 12.9 | 0.00 | 0.00 | 0.00 | 44 | 1019.4 |
| 20260504151138 | 23 | 358 | 4.8 | 4.8 | 0.00 | 0.00 | 0.00 | 47 | 1019.4 |
| 20260504150636 | 23 | 13 | 3.2 | 8.0 | 0.00 | 0.00 | 0.00 | 47 | 1019.7 |
| 20260504150132 | 23 | 346 | 9.7 | 14.5 | 0.00 | 0.00 | 0.00 | 47 | 1019.8 |
| 20260504141101 | 22 | 6 | 8.0 | 12.9 | 0.00 | 0.00 | 0.00 | 51 | 1019.6 |
| 20260504140557 | 22 | 5 | 3.2 | 9.7 | 0.00 | 0.00 | 0.00 | 49 | 1019.8 |
| 20260504130522 | 20 | 337 | 0.0 | 1.6 | 0.00 | 0.00 | 0.00 | 74 | 1019.8 |
| 20260504110409 | 13 | 334 | 0.0 | 0.0 | 0.00 | 0.00 | 0.00 | 98 | 1019.0 |
| 20260504100326 | 12 | 328 | 0.0 | 0.0 | 0.00 | 0.00 | 0.00 | 97 | 1018.5 |
| 20260504081720 | 13 | 328 | 0.0 | 0.0 | 0.00 | 0.00 | 0.00 | 95 | 1018.6 |
| 20260504081216 | 13 | 328 | 0.0 | 0.0 | 0.00 | 0.00 | 0.00 | 95 | 1018.7 |
| 20260504080712 | 13 | 327 | 0.0 | 0.0 | 0.00 | 0.00 | 0.00 | 95 | 1018.8 |
| 20260504080209 | 13 | 327 | 0.0 | 0.0 | 0.00 | 0.00 | 0.00 | 95 | 1018.6 |
| 20260504070137 | 14 | 326 | 0.0 | 0.0 | 0.00 | 0.00 | 0.00 | 93 | 1018.6 |
| 20260504050525 | 16 | 23 | 0.0 | 0.0 | 0.00 | 0.00 | 0.00 | 85 | 1019.8 |
| 20260504050022 | 16 | 23 | 0.0 | 0.0 | 0.00 | 0.00 | 0.00 | 85 | 1019.9 |
| 20260504045519 | 16 | 23 | 0.0 | 0.0 | 0.00 | 0.00 | 0.00 | 84 | 1019.8 |
| 20260504045015 | 16 | 23 | 0.0 | 0.0 | 0.00 | 0.00 | 0.00 | 84 | 1019.9 |
| 20260504044512 | 17 | 23 | 0.0 | 0.0 | 0.00 | 0.00 | 0.00 | 84 | 1019.9 |
| 20260504044009 | 17 | 23 | 0.0 | 0.0 | 0.00 | 0.00 | 0.00 | 83 | 1019.9 |
| 20260504043506 | 17 | 23 | 0.0 | 0.0 | 0.00 | 0.00 | 0.00 | 82 | 1019.9 |
| 20260504043004 | 17 | 23 | 0.0 | 0.0 | 0.00 | 0.00 | 0.00 | 82 | 1019.7 |
| 20260504042500 | 17 | 23 | 0.0 | 0.0 | 0.00 | 0.00 | 0.00 | 81 | 1019.6 |
| 20260504041957 | 17 | 23 | 0.0 | 0.0 | 0.00 | 0.00 | 0.00 | 81 | 1019.6 |
| 20260504041453 | 17 | 23 | 0.0 | 0.0 | 0.00 | 0.00 | 0.00 | 81 | 1019.8 |
| 20260504040949 | 17 | 23 | 0.0 | 0.0 | 0.00 | 0.00 | 0.00 | 81 | 1019.6 |
| 20260504040447 | 17 | 23 | 0.0 | 0.0 | 0.00 | 0.00 | 0.00 | 80 | 1019.7 |
| 20260504035943 | 18 | 24 | 0.0 | 0.0 | 0.00 | 0.00 | 0.00 | 80 | 1019.9 |
| 20260504035441 | 18 | 23 | 0.0 | 0.0 | 0.00 | 0.00 | 0.00 | 80 | 1019.9 |
| 20260504034937 | 18 | 23 | 0.0 | 0.0 | 0.00 | 0.00 | 0.00 | 80 | 1020.0 |
| 20260504034435 | 18 | 23 | 0.0 | 0.0 | 0.00 | 0.00 | 0.00 | 79 | 1019.9 |
| 20260504033931 | 18 | 23 | 0.0 | 0.0 | 0.00 | 0.00 | 0.00 | 79 | 1019.8 |
| 20260504033429 | 18 | 23 | 0.0 | 0.0 | 0.00 | 0.00 | 0.00 | 79 | 1019.8 |
| 20260504032926 | 18 | 46 | 1.6 | 1.6 | 0.00 | 0.00 | 0.00 | 78 | 1019.5 |
| 20260504032423 | 18 | 22 | 0.0 | 1.6 | 0.00 | 0.00 | 0.00 | 78 | 1019.8 |
| 20260504031920 | 18 | 349 | 0.0 | 1.6 | 0.00 | 0.00 | 0.00 | 78 | 1019.8 |
| 20260504031417 | 18 | 350 | 0.0 | 3.2 | 0.00 | 0.00 | 0.00 | 77 | 1019.8 |
| 20260504030913 | 18 | 337 | 1.6 | 1.6 | 0.00 | 0.00 | 0.00 | 77 | 1019.8 |
| 20260504030410 | 18 | 8 | 0.0 | 4.8 | 0.00 | 0.00 | 0.00 | 77 | 1019.9 |
| 20260504025906 | 18 | 7 | 0.0 | 1.6 | 0.00 | 0.00 | 0.00 | 77 | 1019.8 |
| 20260504025403 | 18 | 15 | 0.0 | 1.6 | 0.00 | 0.00 | 0.00 | 77 | 1019.7 |
| 20260504024900 | 18 | 318 | 0.0 | 4.8 | 0.00 | 0.00 | 0.00 | 77 | 1019.7 |
| 20260504024356 | 18 | 359 | 0.0 | 4.8 | 0.00 | 0.00 | 0.00 | 76 | 1019.7 |
| 20260504023854 | 18 | 354 | 0.0 | 3.2 | 0.00 | 0.00 | 0.00 | 76 | 1019.8 |
| 20260504023350 | 18 | 356 | 0.0 | 1.6 | 0.00 | 0.00 | 0.00 | 76 | 1019.8 |
| 20260504022846 | 18 | 355 | 0.0 | 3.2 | 0.00 | 0.00 | 0.00 | 76 | 1019.8 |
| 20260504022343 | 18 | 356 | 0.0 | 4.8 | 0.00 | 0.00 | 0.00 | 75 | 1019.7 |
| 20260504021839 | 18 | 351 | 0.0 | 4.8 | 0.00 | 0.00 | 0.00 | 75 | 1019.7 |
| 20260504021337 | 18 | 353 | 0.0 | 3.2 | 0.00 | 0.00 | 0.00 | 75 | 1019.5 |
| 20260504020834 | 18 | 49 | 1.6 | 4.8 | 0.00 | 0.00 | 0.00 | 75 | 1019.4 |
| 20260504020331 | 18 | 0 | 0.0 | 3.2 | 0.00 | 0.00 | 0.00 | 75 | 1019.3 |
| 20260504015826 | 18 | 15 | 1.6 | 3.2 | 0.00 | 0.00 | 0.00 | 74 | 1019.2 |
| 20260504015323 | 18 | 16 | 0.0 | 3.2 | 0.00 | 0.00 | 0.00 | 74 | 1019.1 |
| 20260504014819 | 18 | 82 | 1.6 | 4.8 | 0.00 | 0.00 | 0.00 | 74 | 1019.1 |
| 20260504014315 | 18 | 15 | 1.6 | 3.2 | 0.00 | 0.00 | 0.00 | 73 | 1019.2 |
| 20260504013813 | 19 | 357 | 0.0 | 9.7 | 0.00 | 0.00 | 0.00 | 73 | 1019.0 |
| 20260504013311 | 19 | 354 | 1.6 | 4.8 | 0.00 | 0.00 | 0.00 | 72 | 1018.9 |
| 20260504012807 | 19 | 115 | 6.4 | 11.3 | 0.00 | 0.00 | 0.00 | 72 | 1019.0 |
| 20260504012305 | 19 | 329 | 3.2 | 9.7 | 0.00 | 0.00 | 0.00 | 72 | 1018.7 |
| 20260504011802 | 19 | 313 | 0.0 | 8.0 | 0.00 | 0.00 | 0.00 | 72 | 1018.8 |
| 20260504011258 | 19 | 6 | 0.0 | 4.8 | 0.00 | 0.00 | 0.00 | 71 | 1018.8 |
| 20260504010749 | 19 | 98 | 1.6 | 3.2 | 0.00 | 0.00 | 0.00 | 70 | 1018.9 |
| 20260504010245 | 19 | 20 | 0.0 | 3.2 | 0.00 | 0.00 | 0.00 | 70 | 1018.9 |
| 20260504005742 | 19 | 352 | 1.6 | 4.8 | 0.00 | 0.00 | 0.00 | 69 | 1018.7 |
| 20260504005239 | 19 | 100 | 6.4 | 8.0 | 0.00 | 0.00 | 0.00 | 68 | 1018.4 |
| 20260504004736 | 19 | 188 | 0.0 | 9.7 | 0.00 | 0.00 | 0.00 | 67 | 1018.5 |
| 20260504004233 | 19 | 113 | 6.4 | 9.7 | 0.00 | 0.00 | 0.00 | 67 | 1018.5 |
| 20260504003730 | 20 | 58 | 3.2 | 11.3 | 0.00 | 0.00 | 0.00 | 66 | 1018.3 |
| 20260504003227 | 20 | 46 | 1.6 | 4.8 | 0.00 | 0.00 | 0.00 | 65 | 1018.6 |
| 20260504002724 | 20 | 149 | 1.6 | 4.8 | 0.00 | 0.00 | 0.00 | 64 | 1018.5 |
| 20260504002220 | 20 | 27 | 1.6 | 11.3 | 0.00 | 0.00 | 0.00 | 62 | 1018.4 |
| 20260504001718 | 20 | 359 | 1.6 | 9.7 | 0.00 | 0.00 | 0.00 | 62 | 1018.3 |
| 20260504001215 | 20 | 24 | 1.6 | 8.0 | 0.00 | 0.00 | 0.00 | 61 | 1018.1 |
| 20260504000711 | 20 | 353 | 0.0 | 3.2 | 0.00 | 0.00 | 0.00 | 61 | 1018.5 |
| 20260504000208 | 20 | 13 | 1.6 | 4.8 | 0.00 | 0.00 | 0.00 | 60 | 1018.4 |
| 20260503235706 | 20 | 25 | 3.2 | 11.3 | 0.00 | 0.00 | 0.00 | 59 | 1018.2 |
| 20260503235204 | 20 | 145 | 4.8 | 11.3 | 0.00 | 0.00 | 0.00 | 58 | 1018.5 |
| 20260503234701 | 21 | 344 | 0.0 | 8.0 | 0.00 | 0.00 | 0.00 | 57 | 1018.5 |
| 20260503234200 | 21 | 354 | 0.0 | 9.7 | 0.00 | 0.00 | 0.00 | 56 | 1018.3 |
| 20260503233656 | 21 | 13 | 1.6 | 1.6 | 0.00 | 0.00 | 0.00 | 54 | 1018.5 |
| 20260503233152 | 21 | 25 | 1.6 | 4.8 | 0.00 | 0.00 | 0.00 | 52 | 1018.4 |
| 20260503232649 | 21 | 142 | 8.0 | 11.3 | 0.00 | 0.00 | 0.00 | 51 | 1018.4 |
| 20260503232146 | 21 | 24 | 0.0 | 8.0 | 0.00 | 0.00 | 0.00 | 50 | 1018.1 |